createdAt,value
2022-07-25T00:01:07.681Z,22.80
2022-07-25T00:03:35.677Z,22.76
2022-07-25T00:06:07.684Z,22.72
2022-07-25T00:08:42.926Z,22.66
2022-07-25T00:11:11.066Z,22.63
2022-07-25T00:13:38.999Z,22.61
2022-07-25T00:16:07.822Z,22.57
2022-07-25T00:18:35.978Z,22.55
2022-07-25T00:21:04.196Z,22.49
2022-07-25T00:23:32.126Z,22.49
2022-07-25T00:26:01.579Z,22.47
2022-07-25T00:28:29.599Z,22.43
2022-07-25T00:30:57.635Z,22.40
2022-07-25T00:33:25.821Z,22.44
2022-07-25T00:35:53.702Z,22.37
2022-07-25T00:38:21.683Z,22.37
2022-07-25T00:40:53.550Z,22.32
2022-07-25T00:43:24.680Z,22.31
2022-07-25T00:45:52.677Z,22.28
2022-07-25T00:48:21.024Z,22.25
2022-07-25T00:50:49.288Z,22.25
2022-07-25T00:53:17.579Z,22.21
2022-07-25T00:55:45.983Z,22.18
2022-07-25T00:58:14.444Z,22.15
2022-07-25T01:00:43.735Z,22.13
2022-07-25T01:03:11.861Z,22.10
2022-07-25T01:05:40.503Z,22.07
2022-07-25T01:08:09.183Z,22.03
2022-07-25T01:10:37.501Z,22.02
2022-07-25T01:13:06.286Z,22.00
2022-07-25T01:15:34.510Z,21.98
2022-07-25T01:18:03.998Z,21.95
2022-07-25T01:20:34.177Z,21.94
2022-07-25T01:23:02.856Z,21.87
2022-07-25T01:25:30.828Z,21.91
2022-07-25T01:27:58.865Z,21.86
2022-07-25T01:30:27.612Z,21.83
2022-07-25T01:32:55.550Z,21.81
2022-07-25T01:35:23.618Z,21.82
2022-07-25T01:37:52.889Z,21.83
2022-07-25T01:40:21.028Z,21.86
2022-07-25T01:42:48.911Z,21.85
2022-07-25T01:45:16.887Z,21.80
2022-07-25T01:47:44.835Z,21.82
2022-07-25T01:50:12.792Z,21.81
2022-07-25T01:52:40.859Z,21.80
2022-07-25T01:55:10.593Z,21.78
2022-07-25T01:57:40.291Z,21.76
2022-07-25T02:00:11.445Z,21.73
2022-07-25T02:02:42.663Z,21.73
2022-07-25T02:05:12.834Z,21.72
2022-07-25T02:07:41.155Z,21.73
2022-07-25T02:10:11.324Z,21.69
2022-07-25T02:12:39.203Z,21.68
2022-07-25T02:15:08.655Z,21.61
2022-07-25T02:17:36.469Z,21.61
2022-07-25T02:20:05.254Z,21.65
2022-07-25T02:22:33.356Z,21.64
2022-07-25T02:25:01.310Z,21.66
2022-07-25T02:27:30.541Z,21.63
2022-07-25T02:29:58.463Z,21.63
2022-07-25T02:32:29.164Z,21.58
2022-07-25T02:34:58.415Z,21.55
2022-07-25T02:37:32.072Z,21.57
2022-07-25T02:40:00.066Z,21.57
2022-07-25T02:42:27.893Z,21.56
2022-07-25T02:44:57.158Z,21.58
2022-07-25T02:47:26.361Z,21.56
2022-07-25T02:49:54.565Z,21.57
2022-07-25T02:52:22.515Z,21.56
2022-07-25T02:54:50.755Z,21.54
2022-07-25T02:57:18.767Z,21.50
2022-07-25T02:59:46.651Z,21.46
2022-07-25T03:02:19.709Z,21.45
2022-07-25T03:04:47.695Z,21.41
2022-07-25T03:07:18.988Z,21.36
2022-07-25T03:09:46.910Z,21.33
2022-07-25T03:12:14.747Z,21.30
2022-07-25T03:14:42.724Z,21.26
2022-07-25T03:17:12.344Z,21.23
2022-07-25T03:19:41.617Z,21.19
2022-07-25T03:22:10.172Z,21.16
2022-07-25T03:24:41.033Z,21.13
2022-07-25T03:27:08.976Z,21.13
2022-07-25T03:29:36.831Z,21.11
2022-07-25T03:32:08.004Z,21.09
2022-07-25T03:34:40.827Z,21.10
2022-07-25T03:37:09.117Z,21.09
2022-07-25T03:39:56.961Z,21.08
2022-07-25T03:42:35.154Z,21.06
2022-07-25T03:45:11.035Z,21.06
2022-07-25T03:47:39.071Z,21.05
2022-07-25T03:50:14.500Z,21.07
2022-07-25T03:52:42.598Z,21.02
2022-07-25T03:55:16.566Z,21.04
2022-07-25T03:57:44.507Z,21.03
2022-07-25T04:00:23.040Z,21.02
2022-07-25T04:02:51.158Z,21.05
2022-07-25T04:05:20.453Z,21.05
2022-07-25T04:07:54.175Z,21.06
2022-07-25T04:10:22.056Z,21.10
2022-07-25T04:12:49.924Z,21.06
2022-07-25T04:15:18.122Z,21.05
2022-07-25T04:17:46.025Z,21.05
2022-07-25T04:20:14.348Z,21.07
2022-07-25T04:22:47.122Z,21.05
2022-07-25T04:25:15.357Z,21.07
2022-07-25T04:27:45.372Z,21.06
2022-07-25T04:30:24.034Z,21.06
2022-07-25T04:32:55.501Z,21.10
2022-07-25T04:35:23.708Z,21.12
2022-07-25T04:37:52.993Z,21.17
2022-07-25T04:40:23.564Z,21.21
2022-07-25T04:42:51.396Z,21.29
2022-07-25T04:45:22.878Z,21.35
2022-07-25T04:47:51.293Z,21.41
2022-07-25T04:50:25.201Z,21.43
2022-07-25T04:52:54.358Z,21.49
2022-07-25T04:55:22.466Z,21.56
2022-07-25T04:57:50.259Z,21.62
2022-07-25T05:00:19.508Z,21.69
2022-07-25T05:02:53.259Z,21.76
2022-07-25T05:05:22.389Z,21.82
2022-07-25T05:07:51.060Z,21.89
2022-07-25T05:10:20.439Z,22.05
2022-07-25T05:13:01.631Z,23.32
2022-07-25T05:15:29.504Z,25.08
2022-07-25T05:18:00.439Z,26.15
2022-07-25T05:20:28.914Z,27.19
2022-07-25T05:22:59.633Z,28.19
2022-07-25T05:25:29.165Z,29.23
2022-07-25T05:27:58.585Z,29.52
2022-07-25T05:30:30.222Z,30.01
2022-07-25T05:33:03.639Z,30.36
2022-07-25T05:35:33.043Z,30.75
2022-07-25T05:38:03.967Z,31.22
2022-07-25T05:40:33.319Z,31.50
2022-07-25T05:43:03.598Z,31.82
2022-07-25T05:45:32.047Z,32.18
2022-07-25T05:48:02.946Z,31.71
2022-07-25T05:50:30.871Z,31.87
2022-07-25T05:52:58.791Z,32.13
2022-07-25T05:55:28.289Z,32.54
2022-07-25T05:57:57.839Z,32.57
2022-07-25T06:00:26.318Z,32.67
2022-07-25T06:02:55.476Z,33.00
2022-07-25T06:05:26.726Z,33.11
2022-07-25T06:07:57.255Z,32.92
2022-07-25T06:10:25.410Z,33.29
2022-07-25T06:12:54.261Z,33.57
2022-07-25T06:15:26.911Z,33.60
2022-07-25T06:17:56.236Z,33.69
2022-07-25T06:20:29.915Z,34.01
2022-07-25T06:22:59.168Z,34.19
2022-07-25T06:25:27.318Z,33.78
2022-07-25T06:27:55.143Z,33.46
2022-07-25T06:30:24.559Z,33.60
2022-07-25T06:32:54.882Z,33.23
2022-07-25T06:35:27.051Z,33.09
2022-07-25T06:38:05.000Z,32.64
2022-07-25T06:40:33.034Z,32.04
2022-07-25T06:43:04.057Z,31.52
2022-07-25T06:45:33.548Z,31.39
2022-07-25T06:48:06.021Z,30.99
2022-07-25T06:50:34.299Z,30.45
2022-07-25T06:53:08.192Z,30.03
2022-07-25T06:55:36.450Z,29.57
2022-07-25T06:58:10.385Z,29.11
2022-07-25T07:00:43.150Z,28.84
2022-07-25T07:03:13.852Z,28.59
2022-07-25T07:05:43.128Z,28.54
2022-07-25T07:08:18.671Z,28.44
2022-07-25T07:10:46.487Z,28.38
2022-07-25T07:13:24.709Z,28.48
2022-07-25T07:15:54.336Z,28.57
2022-07-25T07:18:22.568Z,28.76
2022-07-25T07:21:16.139Z,29.01
2022-07-25T07:23:53.756Z,29.04
2022-07-25T07:26:21.997Z,29.12
2022-07-25T07:28:54.447Z,29.34
2022-07-25T07:31:25.654Z,29.36
2022-07-25T07:33:55.285Z,29.43
2022-07-25T07:36:23.474Z,29.57
2022-07-25T07:38:52.437Z,29.70
2022-07-25T07:41:24.194Z,29.87
2022-07-25T07:43:52.165Z,29.96
2022-07-25T07:46:20.203Z,29.90
2022-07-25T07:48:49.672Z,29.98
2022-07-25T07:51:17.618Z,30.11
2022-07-25T07:54:02.895Z,30.27
2022-07-25T07:56:30.736Z,30.48
2022-07-25T07:58:58.643Z,30.68
2022-07-25T08:01:26.996Z,30.77
2022-07-25T08:03:56.286Z,30.80
2022-07-25T08:06:24.288Z,30.64
2022-07-25T08:08:52.127Z,30.51
2022-07-25T08:11:24.774Z,30.21
2022-07-25T08:13:52.724Z,30.10
2022-07-25T08:16:20.668Z,30.17
2022-07-25T08:19:00.175Z,30.17
2022-07-25T08:21:29.800Z,30.01
2022-07-25T08:24:00.786Z,30.03
2022-07-25T08:26:30.467Z,30.05
2022-07-25T08:29:18.109Z,30.17
2022-07-25T08:31:47.053Z,30.46
2022-07-25T08:34:14.967Z,30.63
2022-07-25T08:36:44.587Z,30.80
2022-07-25T08:39:13.516Z,31.03
2022-07-25T08:41:42.256Z,31.15
2022-07-25T08:44:21.378Z,31.08
2022-07-25T08:46:49.820Z,30.93
2022-07-25T08:49:18.372Z,30.80
2022-07-25T08:51:51.683Z,30.74
2022-07-25T08:54:19.959Z,30.80
2022-07-25T08:56:55.360Z,30.88
2022-07-25T08:59:23.317Z,31.03
2022-07-25T09:01:51.277Z,31.15
2022-07-25T09:04:19.755Z,31.31
2022-07-25T09:06:53.436Z,31.43
2022-07-25T09:09:34.913Z,31.42
2022-07-25T09:12:05.084Z,31.31
2022-07-25T09:14:49.487Z,31.24
2022-07-25T09:17:22.228Z,31.27
2022-07-25T09:19:57.365Z,31.39
2022-07-25T09:22:27.601Z,31.48
2022-07-25T09:24:56.316Z,31.45
2022-07-25T09:27:34.403Z,31.37
2022-07-25T09:30:13.688Z,31.40
2022-07-25T09:32:41.557Z,31.43
2022-07-25T09:35:16.818Z,31.41
2022-07-25T09:37:46.193Z,31.40
2022-07-25T09:40:15.884Z,31.51
2022-07-25T09:42:52.483Z,31.62
2022-07-25T09:45:20.335Z,31.67
2022-07-25T09:47:54.149Z,31.83
2022-07-25T09:50:24.241Z,31.98
2022-07-25T09:53:02.396Z,32.00
2022-07-25T09:55:31.481Z,31.99
2022-07-25T09:57:59.618Z,32.08
2022-07-25T10:00:29.824Z,32.03
2022-07-25T10:03:12.466Z,31.97
2022-07-25T10:05:51.945Z,32.02
2022-07-25T10:08:22.491Z,32.15
2022-07-25T10:10:53.238Z,32.32
2022-07-25T10:13:31.504Z,32.28
2022-07-25T10:15:59.570Z,32.32
2022-07-25T10:18:30.023Z,32.54
2022-07-25T10:21:28.675Z,32.71
2022-07-25T10:24:04.504Z,32.83
2022-07-25T10:26:33.961Z,32.87
2022-07-25T10:29:34.378Z,33.08
2022-07-25T10:32:13.305Z,33.11
2022-07-25T10:34:41.879Z,33.24
2022-07-25T10:37:11.962Z,33.37
2022-07-25T10:39:42.757Z,33.57
2022-07-25T10:42:14.622Z,33.75
2022-07-25T10:44:46.758Z,33.92
2022-07-25T10:47:16.007Z,34.13
2022-07-25T10:50:13.380Z,34.18
2022-07-25T10:52:46.075Z,34.18
2022-07-25T10:55:24.152Z,34.05
2022-07-25T10:58:18.721Z,33.98
2022-07-25T11:00:53.830Z,34.26
2022-07-25T11:03:22.417Z,34.18
2022-07-25T11:05:54.669Z,33.93
2022-07-25T11:08:32.139Z,33.80
2022-07-25T11:11:11.479Z,33.54
2022-07-25T11:13:40.589Z,33.50
2022-07-25T11:16:09.873Z,33.52
2022-07-25T11:18:40.268Z,33.49
2022-07-25T11:21:09.988Z,33.53
2022-07-25T11:23:38.002Z,33.49
2022-07-25T11:26:12.443Z,33.33
2022-07-25T11:28:42.150Z,33.17
2022-07-25T11:31:11.922Z,33.19
2022-07-25T11:33:40.647Z,33.20
2022-07-25T11:36:10.863Z,33.17
2022-07-25T11:38:40.210Z,33.18
2022-07-25T11:44:19.118Z,33.29
2022-07-25T11:46:47.234Z,33.57
2022-07-25T11:49:15.302Z,33.82
2022-07-25T11:51:43.260Z,33.94
2022-07-25T11:54:19.397Z,34.06
2022-07-25T11:56:47.589Z,34.11
2022-07-25T11:59:16.918Z,34.28
2022-07-25T12:01:59.953Z,34.47
2022-07-25T12:04:41.844Z,34.40
2022-07-25T12:07:12.180Z,34.23
2022-07-25T12:09:40.579Z,34.15
2022-07-25T12:12:09.311Z,33.95
2022-07-25T12:14:45.442Z,33.68
2022-07-25T12:17:13.503Z,33.55
2022-07-25T12:19:42.145Z,33.50
2022-07-25T12:22:10.094Z,33.54
2022-07-25T12:24:42.022Z,33.58
2022-07-25T12:27:11.281Z,33.73
2022-07-25T12:29:39.154Z,33.75
2022-07-25T12:32:08.709Z,33.77
2022-07-25T12:34:38.108Z,33.86
2022-07-25T12:37:08.991Z,33.90
2022-07-25T12:39:36.895Z,33.94
2022-07-25T12:42:05.046Z,33.85
2022-07-25T12:44:36.208Z,33.71
2022-07-25T12:47:04.143Z,33.50
2022-07-25T12:49:36.256Z,33.23
2022-07-25T12:52:05.040Z,32.89
2022-07-25T12:54:32.956Z,32.52
2022-07-25T12:57:01.625Z,32.22
2022-07-25T12:59:29.541Z,32.07
2022-07-25T13:01:57.666Z,31.99
2022-07-25T13:04:26.747Z,31.85
2022-07-25T13:06:56.305Z,31.77
2022-07-25T13:09:28.095Z,31.67
2022-07-25T13:11:59.487Z,31.55
2022-07-25T13:14:27.497Z,31.54
2022-07-25T13:16:55.982Z,31.47
2022-07-25T13:19:23.980Z,31.36
2022-07-25T13:21:54.977Z,31.27
2022-07-25T13:24:26.506Z,31.25
2022-07-25T13:26:54.677Z,31.30
2022-07-25T13:29:22.713Z,31.41
2022-07-25T13:31:51.970Z,31.46
2022-07-25T13:34:24.811Z,31.54
2022-07-25T13:36:55.729Z,31.75
2022-07-25T13:39:32.433Z,32.10
2022-07-25T13:42:00.326Z,32.50
2022-07-25T13:44:30.486Z,32.70
2022-07-25T13:47:06.251Z,32.76
2022-07-25T13:49:41.211Z,32.53
2022-07-25T13:52:18.217Z,32.39
2022-07-25T13:55:02.295Z,32.30
2022-07-25T13:57:30.187Z,32.14
2022-07-25T13:59:58.172Z,32.18
2022-07-25T14:02:26.111Z,32.27
2022-07-25T14:04:54.156Z,32.43
2022-07-25T14:07:22.033Z,32.59
2022-07-25T14:09:51.254Z,32.54
2022-07-25T14:12:19.115Z,32.43
2022-07-25T14:14:47.084Z,32.58
2022-07-25T14:17:15.074Z,32.55
2022-07-25T14:19:45.423Z,32.56
2022-07-25T14:22:13.266Z,32.64
2022-07-25T14:24:43.337Z,32.83
2022-07-25T14:27:12.924Z,32.81
2022-07-25T14:29:40.755Z,32.65
2022-07-25T14:32:09.074Z,32.69
2022-07-25T14:34:37.920Z,32.77
2022-07-25T14:37:07.472Z,32.75
2022-07-25T14:39:36.258Z,32.58
2022-07-25T14:42:04.645Z,32.38
2022-07-25T14:44:39.474Z,32.20
2022-07-25T14:47:12.277Z,32.34
2022-07-25T14:49:41.296Z,32.31
2022-07-25T14:52:16.996Z,32.53
2022-07-25T14:54:44.958Z,32.82
2022-07-25T14:57:12.750Z,32.88
2022-07-25T14:59:42.069Z,32.72
2022-07-25T15:02:11.007Z,32.53
2022-07-25T15:04:38.894Z,32.44
2022-07-25T15:07:12.736Z,32.27
2022-07-25T15:09:40.582Z,32.26
2022-07-25T15:12:16.684Z,32.41
2022-07-25T15:14:46.698Z,32.55
2022-07-25T15:17:17.864Z,32.49
2022-07-25T15:19:51.039Z,32.42
2022-07-25T15:22:19.004Z,32.25
2022-07-25T15:25:22.452Z,32.20
2022-07-25T15:27:38.304Z,32.13
2022-07-25T15:30:16.805Z,31.96
2022-07-25T15:32:45.781Z,31.85
2022-07-25T15:35:13.691Z,31.76
2022-07-25T15:37:41.756Z,31.65
2022-07-25T15:40:15.906Z,31.48
2022-07-25T15:42:44.957Z,31.27
2022-07-25T15:45:32.590Z,31.13
2022-07-25T15:48:07.850Z,31.14
2022-07-25T15:50:36.672Z,30.90
2022-07-25T15:53:08.083Z,30.58
2022-07-25T15:55:38.017Z,30.32
2022-07-25T15:58:06.518Z,30.02
2022-07-25T16:00:34.733Z,29.72
2022-07-25T16:03:04.085Z,29.58
2022-07-25T16:05:33.978Z,29.56
2022-07-25T16:08:02.932Z,29.49
2022-07-25T16:10:32.038Z,29.36
2022-07-25T16:13:00.946Z,29.29
2022-07-25T16:15:29.510Z,29.27
2022-07-25T16:18:02.318Z,29.33
2022-07-25T16:20:31.965Z,29.13
2022-07-25T16:23:02.120Z,29.03
2022-07-25T16:25:30.866Z,28.82
2022-07-25T16:28:00.339Z,28.68
2022-07-25T16:30:31.423Z,28.52
2022-07-25T16:33:05.687Z,28.54
2022-07-25T16:35:33.662Z,28.43
2022-07-25T16:38:09.043Z,28.30
2022-07-25T16:40:36.885Z,28.22
2022-07-25T16:43:05.033Z,28.16
2022-07-25T16:45:33.763Z,28.19
2022-07-25T16:48:01.641Z,28.11
2022-07-25T16:50:29.507Z,28.06
2022-07-25T16:52:57.387Z,28.01
2022-07-25T16:55:26.642Z,27.92
2022-07-25T16:57:54.978Z,27.78
2022-07-25T17:00:24.863Z,27.64
2022-07-25T17:02:55.476Z,27.65
2022-07-25T17:05:30.694Z,27.68
2022-07-25T17:08:01.921Z,27.57
2022-07-25T17:10:31.187Z,27.36
2022-07-25T17:13:01.248Z,27.22
2022-07-25T17:15:29.193Z,27.17
2022-07-25T17:18:06.218Z,27.20
2022-07-25T17:20:34.039Z,27.21
2022-07-25T17:23:29.688Z,27.35
2022-07-25T17:26:02.105Z,27.32
2022-07-25T17:28:30.107Z,27.27
2022-07-25T17:30:57.981Z,27.26
2022-07-25T17:33:25.931Z,27.08
2022-07-25T17:35:54.027Z,26.95
2022-07-25T17:38:26.972Z,26.92
2022-07-25T17:41:00.978Z,26.87
2022-07-25T17:43:29.115Z,26.74
2022-07-25T17:45:57.559Z,26.59
2022-07-25T17:48:28.566Z,26.42
2022-07-25T17:50:56.507Z,26.32
2022-07-25T17:53:24.593Z,26.20
2022-07-25T17:55:54.798Z,26.19
2022-07-25T17:58:34.258Z,26.13
2022-07-25T18:01:03.988Z,26.11
2022-07-25T18:03:35.050Z,26.11
2022-07-25T18:06:05.130Z,26.03
2022-07-25T18:08:36.363Z,25.98
2022-07-25T18:11:04.457Z,25.93
2022-07-25T18:13:36.885Z,25.89
2022-07-25T18:16:05.459Z,25.75
2022-07-25T18:18:33.614Z,25.69
2022-07-25T18:21:01.841Z,25.65
2022-07-25T18:23:43.550Z,25.62
2022-07-25T18:26:11.907Z,25.60
2022-07-25T18:28:45.487Z,25.53
2022-07-25T18:31:13.685Z,25.52
2022-07-25T18:33:44.415Z,25.44
2022-07-25T18:36:12.363Z,25.38
2022-07-25T18:38:40.698Z,25.28
2022-07-25T18:41:29.377Z,25.27
2022-07-25T18:44:01.879Z,25.16
2022-07-25T18:46:30.240Z,25.12
2022-07-25T18:48:58.816Z,24.87
2022-07-25T18:51:29.769Z,25.04
2022-07-25T18:53:57.669Z,25.10
2022-07-25T18:56:25.581Z,25.12
2022-07-25T18:58:53.472Z,25.07
2022-07-25T19:01:27.329Z,25.07
2022-07-25T19:03:57.109Z,24.97
2022-07-25T19:06:25.326Z,24.92
2022-07-25T19:09:04.020Z,24.89
2022-07-25T19:11:42.208Z,24.77
2022-07-25T19:14:10.730Z,24.64
2022-07-25T19:16:42.853Z,24.57
2022-07-25T19:19:13.192Z,24.49
2022-07-25T19:21:40.980Z,24.43
2022-07-25T19:24:09.279Z,24.41
2022-07-25T19:26:40.474Z,24.31
2022-07-25T19:29:08.697Z,24.22
2022-07-25T19:31:41.439Z,24.13
2022-07-25T19:34:11.626Z,24.06
2022-07-25T19:36:45.808Z,24.05
2022-07-25T19:39:14.268Z,24.07
2022-07-25T19:41:46.719Z,23.99
2022-07-25T19:44:15.471Z,23.88
2022-07-25T19:46:44.856Z,23.90
2022-07-25T19:49:21.564Z,23.86
2022-07-25T19:51:52.331Z,23.84
2022-07-25T19:54:21.641Z,23.84
2022-07-25T19:56:49.494Z,23.80
2022-07-25T19:59:20.184Z,23.73
2022-07-25T20:01:50.229Z,23.77
2022-07-25T20:04:18.174Z,23.71
2022-07-25T20:06:46.001Z,23.65
2022-07-25T20:09:14.357Z,23.54
2022-07-25T20:11:43.719Z,23.59
2022-07-25T20:14:11.691Z,23.37
2022-07-25T20:16:40.438Z,23.33
2022-07-25T20:19:11.875Z,23.46
2022-07-25T20:21:40.984Z,23.44
2022-07-25T20:24:09.505Z,23.40
2022-07-25T20:26:37.644Z,23.33
2022-07-25T20:29:10.683Z,23.35
2022-07-25T20:31:38.964Z,23.36
2022-07-25T20:34:06.995Z,23.23
2022-07-25T20:36:43.817Z,23.23
2022-07-25T20:39:20.772Z,23.17
2022-07-25T20:41:51.376Z,23.16
2022-07-25T20:44:19.640Z,23.15
2022-07-25T20:46:51.454Z,23.15
2022-07-25T20:49:25.038Z,23.17
2022-07-25T20:51:54.922Z,23.23
2022-07-25T20:54:23.449Z,23.21
2022-07-25T20:56:51.757Z,23.12
2022-07-25T20:59:20.178Z,23.03
2022-07-25T21:01:48.289Z,22.94
2022-07-25T21:04:19.050Z,22.84
2022-07-25T21:06:57.332Z,22.74
2022-07-25T21:09:29.554Z,22.75
2022-07-25T21:12:00.410Z,22.68
2022-07-25T21:14:30.097Z,22.63
2022-07-25T21:16:58.104Z,22.56
2022-07-25T21:19:27.159Z,22.50
2022-07-25T21:21:55.247Z,22.47
2022-07-25T21:24:27.777Z,22.41
2022-07-25T21:27:03.807Z,22.43
2022-07-25T21:29:34.492Z,22.40
2022-07-25T21:32:13.757Z,22.36
2022-07-25T21:34:47.429Z,22.32
2022-07-25T21:37:16.406Z,22.30
2022-07-25T21:39:50.684Z,22.29
2022-07-25T21:42:21.733Z,22.25
2022-07-25T21:44:53.029Z,22.21
2022-07-25T21:47:21.113Z,22.03
2022-07-25T21:50:06.295Z,22.14
2022-07-25T21:52:35.318Z,22.17
2022-07-25T21:55:05.959Z,22.11
2022-07-25T21:57:34.088Z,22.17
2022-07-25T22:00:02.304Z,22.22
2022-07-25T22:02:31.286Z,22.28
2022-07-25T22:04:59.243Z,22.37
2022-07-25T22:07:28.490Z,22.43
2022-07-25T22:10:09.351Z,22.46
2022-07-25T22:12:39.047Z,22.47
2022-07-25T22:15:12.753Z,22.39
2022-07-25T22:17:48.470Z,22.36
2022-07-25T22:20:21.547Z,22.28
2022-07-25T22:22:50.395Z,22.24
2022-07-25T22:25:19.988Z,22.17
2022-07-25T22:27:49.989Z,22.06
2022-07-25T22:30:19.518Z,21.96
2022-07-25T22:32:51.220Z,21.87
2022-07-25T22:35:19.676Z,21.82
2022-07-25T22:37:50.831Z,21.74
2022-07-25T22:40:21.936Z,21.64
2022-07-25T22:42:57.245Z,21.56
2022-07-25T22:45:25.372Z,21.54
2022-07-25T22:47:59.572Z,21.51
2022-07-25T22:50:27.737Z,21.47
2022-07-25T22:52:55.846Z,21.44
2022-07-25T22:55:41.651Z,21.42
2022-07-25T22:58:12.777Z,21.33
2022-07-25T23:00:41.127Z,21.25
2022-07-25T23:03:09.167Z,21.19
2022-07-25T23:05:53.854Z,21.15
2022-07-25T23:08:22.266Z,21.08
2022-07-25T23:10:51.978Z,20.95
2022-07-25T23:13:20.271Z,21.02
2022-07-25T23:15:51.729Z,20.98
2022-07-25T23:18:19.772Z,20.98
2022-07-25T23:20:47.874Z,20.94
2022-07-25T23:23:18.571Z,20.92
2022-07-25T23:25:46.588Z,20.73
2022-07-25T23:28:20.987Z,20.90
2022-07-25T23:30:51.963Z,20.90
2022-07-25T23:33:45.942Z,20.89
2022-07-25T23:36:19.771Z,20.86
2022-07-25T23:38:47.691Z,20.73
2022-07-25T23:41:21.569Z,20.85
2022-07-25T23:43:57.421Z,20.87
2022-07-25T23:46:42.720Z,20.89
2022-07-25T23:49:14.187Z,20.94
2022-07-25T23:51:42.766Z,20.96
2022-07-25T23:54:10.757Z,21.00
2022-07-25T23:56:42.739Z,21.01
2022-07-25T23:59:12.206Z,21.05
